Time;durP1;ratioP1;P1;durP2;ratioP2;P2;SDS_P1;SDS_P2;PMS_P1;PMS_P2;Temp;Humidity;BMP_temperature;BMP_pressure;BME280_temperature;BME280_humidity;BME280_pressure;Samples;Min_cycle;Max_cycle;Signal;HPM_P1;HPM_P2
2022/07/10 00:01:02;;;;;;;29.40;2.50;;;;;;;23.83;54.73;99874.06;7314680;19;129058;-38
2022/07/10 00:03:28;;;;;;;22.10;2.40;;;;;;;23.84;55.97;99892.31;7314627;19;129020;-37
2022/07/10 00:05:53;;;;;;;30.55;2.70;;;;;;;23.82;55.18;99883.75;7314172;19;130417;-37
2022/07/10 00:08:19;;;;;;;31.43;3.00;;;;;;;23.83;55.18;99880.13;7311554;19;129467;-38
2022/07/10 00:10:44;;;;;;;24.57;2.33;;;;;;;23.82;54.65;99883.75;7314000;19;130501;-38
2022/07/10 00:13:09;;;;;;;28.90;2.67;;;;;;;23.85;55.81;99880.81;7315584;19;129585;-38
2022/07/10 00:15:35;;;;;;;35.13;3.17;;;;;;;23.84;55.30;99884.41;7313449;19;129967;-38
2022/07/10 00:18:00;;;;;;;28.23;2.58;;;;;;;23.83;55.26;99879.31;7312683;19;128871;-36
2022/07/10 00:20:26;;;;;;;27.17;2.67;;;;;;;23.82;55.89;99883.75;7314768;19;129421;-38
2022/07/10 00:22:51;;;;;;;30.77;3.03;;;;;;;23.76;55.30;99873.84;7314641;19;130142;-37
2022/07/10 00:25:17;;;;;;;30.27;2.67;;;;;;;23.81;55.25;99886.50;7314777;19;129762;-37
2022/07/10 00:27:42;;;;;;;27.63;2.58;;;;;;;23.71;55.34;99876.06;7311530;19;129007;-37
2022/07/10 00:30:10;;;;;;;33.35;3.28;;;;;;;23.81;54.59;99897.84;7313638;19;128921;-37
2022/07/10 00:32:36;;;;;;;28.15;2.33;;;;;;;23.72;55.32;99872.47;7313879;19;130288;-37
2022/07/10 00:35:02;;;;;;;25.05;2.53;;;;;;;23.80;55.60;99893.56;7314511;19;130395;-37
2022/07/10 00:37:29;;;;;;;20.80;2.00;;;;;;;23.76;54.88;99889.59;7312004;19;129086;-37
2022/07/10 00:39:54;;;;;;;23.20;2.20;;;;;;;23.81;55.80;99892.59;7314172;19;129412;-37
2022/07/10 00:42:20;;;;;;;29.00;2.47;;;;;;;23.81;54.21;99897.84;7314231;19;129990;-38
2022/07/10 00:44:45;;;;;;;34.00;2.77;;;;;;;23.79;55.20;99897.16;7314771;19;129662;-37
2022/07/10 00:47:11;;;;;;;20.30;1.80;;;;;;;23.79;53.93;99894.53;7310393;19;129336;-37
2022/07/10 00:49:38;;;;;;;30.50;2.83;;;;;;;23.80;55.46;99896.19;7311965;19;130508;-37
2022/07/10 00:52:06;;;;;;;38.05;3.35;;;;;;;23.78;55.81;99892.91;7312835;19;130338;-37
2022/07/10 00:54:35;;;;;;;23.08;2.03;;;;;;;23.74;55.23;99886.28;7314152;19;129320;-37
2022/07/10 00:57:03;;;;;;;28.08;2.67;;;;;;;23.68;55.39;99876.38;7312134;19;129875;-36
2022/07/10 00:59:29;;;;;;;13.27;1.55;;;;;;;23.78;54.51;99892.06;7313800;19;128921;-38
2022/07/10 01:01:55;;;;;;;27.10;2.35;;;;;;;23.77;54.54;99891.22;7312482;19;130128;-38
2022/07/10 01:04:21;;;;;;;33.83;2.83;;;;;;;23.79;53.76;99894.53;7313261;19;129249;-38
2022/07/10 01:06:47;;;;;;;23.73;2.00;;;;;;;23.78;54.48;99892.91;7312199;19;128825;-37
2022/07/10 01:09:12;;;;;;;35.87;3.10;;;;;;;23.81;53.69;99892.59;7311598;19;128871;-36
2022/07/10 01:11:38;;;;;;;26.77;2.78;;;;;;;23.81;55.06;99887.34;7311864;19;129256;-37
2022/07/10 01:14:04;;;;;;;17.15;1.90;;;;;;;23.80;54.02;99885.69;7312624;19;130299;-38
2022/07/10 01:16:30;;;;;;;44.17;3.87;;;;;;;23.80;54.02;99885.69;7312105;19;128915;-37
2022/07/10 01:18:56;;;;;;;29.77;2.88;;;;;;;23.79;54.14;99891.91;7313819;19;129479;-37
2022/07/10 01:21:38;;;;;;;23.17;2.30;;;;;;;23.77;55.62;99890.38;7311337;19;129219;-37
2022/07/10 01:24:08;;;;;;;30.17;2.80;;;;;;;23.75;54.06;99887.91;7312073;19;130276;-39
2022/07/10 01:26:34;;;;;;;27.08;2.58;;;;;;;23.75;54.59;99893.16;7312086;19;129319;-38
2022/07/10 01:29:06;;;;;;;25.30;2.40;;;;;;;23.74;53.99;99895.94;7312454;19;129870;-39
2022/07/10 01:31:32;;;;;;;28.70;2.75;;;;;;;23.75;53.65;99900.22;7311567;19;130471;-38
2022/07/10 01:34:00;;;;;;;23.75;2.17;;;;;;;23.75;54.35;99893.16;7312074;19;130528;-38
2022/07/10 01:36:28;;;;;;;30.02;2.67;;;;;;;23.76;54.45;99886.97;7308397;19;128875;-37
2022/07/10 01:38:55;;;;;;;19.73;1.85;;;;;;;23.76;53.23;99884.34;7312707;19;129073;-37
2022/07/10 01:41:20;;;;;;;;;;;;;;;23.80;56.67;99885.69;7311959;19;130045;-37
2022/07/10 01:43:47;;;;;;;21.60;2.03;;;;;;;23.78;54.65;99886.81;7312988;19;129197;-38
2022/07/10 01:46:13;;;;;;;34.58;3.25;;;;;;;23.71;54.86;99876.06;7310875;19;129253;-37
2022/07/10 01:48:38;;;;;;;19.17;1.67;;;;;;;23.77;53.75;99880.72;7311440;19;128977;-38
2022/07/10 01:51:08;;;;;;;35.00;3.17;;;;;;;23.76;54.75;99876.47;7310825;19;132031;-38
2022/07/10 01:53:34;;;;;;;21.27;2.10;;;;;;;23.72;53.82;99867.22;7312233;19;130838;-37
2022/07/10 01:56:03;;;;;;;32.03;3.03;;;;;;;23.63;55.08;99847.09;7309985;19;129944;-37
2022/07/10 01:58:29;;;;;;;30.92;2.88;;;;;;;23.73;54.74;99868.03;7309614;19;129451;-38
2022/07/10 02:00:54;;;;;;;25.98;2.30;;;;;;;23.74;54.78;99867.91;7309716;19;131296;-37
2022/07/10 02:06:03;;;;;;;25.13;2.47;;;;;;;23.72;54.18;99869.84;7311530;19;129406;-36
2022/07/10 02:08:29;;;;;;;28.60;2.80;;;;;;;23.72;54.46;99864.59;7308940;19;130914;-38
2022/07/10 02:10:54;;;;;;;25.63;2.37;;;;;;;23.73;53.29;99868.88;7310838;19;129968;-37
2022/07/10 02:13:20;;;;;;;38.75;3.53;;;;;;;23.72;53.42;99861.13;7310285;19;129314;-35
2022/07/10 02:15:49;;;;;;;25.33;2.17;;;;;;;23.70;54.98;99869.16;7310567;19;128899;-37
2022/07/10 02:18:14;;;;;;;46.03;3.83;;;;;;;23.71;54.68;99865.56;7307899;19;129641;-38
2022/07/10 02:20:40;;;;;;;21.88;1.92;;;;;;;23.71;54.09;99868.19;7310390;19;130927;-37
2022/07/10 02:23:06;;;;;;;31.43;2.63;;;;;;;23.70;53.97;99861.28;7309782;19;129252;-38
2022/07/10 02:25:32;;;;;;;49.95;4.57;;;;;;;23.72;53.17;99861.13;7311190;19;128771;-37
2022/07/10 02:27:58;;;;;;;43.50;3.67;;;;;;;23.74;54.39;99852.13;7308826;19;128780;-37
2022/07/10 02:30:23;;;;;;;29.77;2.90;;;;;;;23.77;52.90;99848.38;7310432;19;129428;-37
2022/07/10 02:32:49;;;;;;;13.43;1.57;;;;;;;23.74;53.01;99844.28;7311321;19;130483;-37
2022/07/10 02:35:14;;;;;;;48.90;4.47;;;;;;;23.70;54.34;99842.91;7310544;19;128854;-39
2022/07/10 02:37:39;;;;;;;20.07;1.87;;;;;;;23.71;54.05;99841.94;7309165;19;131066;-41
2022/07/10 02:40:05;;;;;;;35.85;3.35;;;;;;;23.72;53.20;99850.63;7309549;19;129997;-40
2022/07/10 02:42:31;;;;;;;36.00;3.43;;;;;;;23.68;53.39;99850.13;7310845;19;130295;-41
2022/07/10 02:44:56;;;;;;;31.27;2.67;;;;;;;23.72;53.68;99845.38;7312033;19;130465;-39
2022/07/10 02:47:22;;;;;;;41.13;3.28;;;;;;;23.67;53.88;99843.19;7308782;19;129255;-41
2022/07/10 02:49:47;;;;;;;23.90;2.20;;;;;;;23.70;53.82;99844.72;7312347;19;130271;-37
2022/07/10 02:52:12;;;;;;;21.83;2.15;;;;;;;23.69;53.17;99843.88;7317418;19;130345;-38
2022/07/10 02:54:37;;;;;;;31.05;2.60;;;;;;;23.69;53.74;99854.38;7316673;19;130021;-40
2022/07/10 02:57:03;;;;;;;34.47;2.90;;;;;;;23.69;53.64;99843.03;7315451;19;129191;-40
2022/07/10 02:59:29;;;;;;;31.53;2.80;;;;;;;23.63;53.43;99820.03;7317207;19;131542;-38
2022/07/10 03:01:54;;;;;;;28.65;2.67;;;;;;;23.69;52.79;99836.00;7316200;19;130243;-40
2022/07/10 03:04:19;;;;;;;24.03;2.23;;;;;;;23.65;53.68;99832.00;7317129;19;129296;-39
2022/07/10 03:06:45;;;;;;;13.88;1.60;;;;;;;23.67;52.65;99837.13;7315974;19;130686;-38
2022/07/10 03:09:11;;;;;;;28.17;2.43;;;;;;;23.67;52.91;99843.19;7316376;19;129283;-37
2022/07/10 03:11:36;;;;;;;22.17;2.08;;;;;;;23.65;52.88;99834.63;7316800;19;130724;-41
2022/07/10 03:14:02;;;;;;;28.70;2.57;;;;;;;23.65;52.87;99845.13;7317811;19;130015;-38
2022/07/10 03:16:27;;;;;;;39.57;3.40;;;;;;;23.66;53.19;99838.09;7315213;19;130267;-40
2022/07/10 03:18:53;;;;;;;30.98;3.03;;;;;;;23.65;52.52;99839.06;7316079;19;130210;-39
2022/07/10 03:21:18;;;;;;;41.67;3.50;;;;;;;23.65;53.57;99839.06;7313005;19;130318;-40
2022/07/10 03:23:43;;;;;;;23.40;2.20;;;;;;;23.65;53.76;99833.84;7314879;19;130021;-38
2022/07/10 03:26:09;;;;;;;27.33;2.35;;;;;;;23.67;52.18;99837.94;7315514;19;129682;-41
2022/07/10 03:28:35;;;;;;;24.27;2.13;;;;;;;23.63;53.33;99833.97;7314773;19;129766;-39
2022/07/10 03:31:02;;;;;;;30.98;3.05;;;;;;;23.66;52.70;99831.06;7314633;19;130739;-41
2022/07/10 03:33:27;;;;;;;25.02;2.28;;;;;;;23.63;52.79;99826.09;7316438;19;130063;-41
2022/07/10 03:35:52;;;;;;;41.30;3.35;;;;;;;23.64;52.58;99843.50;7314575;19;129562;-40
2022/07/10 03:38:18;;;;;;;30.10;2.37;;;;;;;23.64;53.16;99832.16;7313373;19;129612;-38
2022/07/10 03:40:47;;;;;;;23.50;2.28;;;;;;;23.56;52.90;99809.28;7315946;19;129056;-41
2022/07/10 03:43:12;;;;;;;33.38;3.03;;;;;;;23.66;52.26;99824.97;7317117;19;129647;-39
2022/07/10 03:45:38;;;;;;;48.00;4.38;;;;;;;23.63;53.52;99820.84;7317336;19;129520;-40
2022/07/10 03:48:04;;;;;;;22.55;2.20;;;;;;;23.63;53.45;99828.72;7313070;19;129004;-38
2022/07/10 03:50:29;;;;;;;26.00;2.50;;;;;;;23.61;53.11;99824.59;7317489;19;130982;-41
2022/07/10 03:52:54;;;;;;;29.80;2.80;;;;;;;23.62;52.32;99829.69;7317893;19;129774;-38
2022/07/10 03:55:20;;;;;;;33.47;2.97;;;;;;;23.62;54.18;99832.31;7316146;19;129311;-40
2022/07/10 03:57:54;;;;;;;36.78;2.85;;;;;;;23.61;53.92;99822.78;7313805;19;130904;-39
2022/07/10 04:00:25;;;;;;;34.35;3.28;;;;;;;23.49;54.73;99802.13;7314280;19;130471;-40
2022/07/10 04:02:58;;;;;;;29.88;2.67;;;;;;;23.62;54.63;99823.63;7316185;19;129605;-39
2022/07/10 04:05:24;;;;;;;31.10;2.72;;;;;;;23.59;52.60;99819.47;7314257;19;129671;-39
2022/07/10 04:07:50;;;;;;;26.53;2.47;;;;;;;23.59;53.00;99822.09;7313684;19;130809;-41
2022/07/10 04:10:15;;;;;;;27.33;2.35;;;;;;;23.59;52.94;99818.66;7312349;19;130382;-38
2022/07/10 04:12:41;;;;;;;27.63;2.55;;;;;;;23.61;52.98;99819.34;7316684;19;129258;-39
2022/07/10 04:15:07;;;;;;;22.52;2.33;;;;;;;23.58;51.93;99820.47;7315020;19;130651;-39
2022/07/10 04:17:32;;;;;;;27.38;2.65;;;;;;;23.59;52.00;99821.28;7312514;19;129817;-40
2022/07/10 04:19:59;;;;;;;30.73;2.83;;;;;;;23.51;52.30;99803.66;7313663;19;130838;-39
2022/07/10 04:22:25;;;;;;;25.48;2.28;;;;;;;23.59;52.79;99814.22;7314814;19;129729;-40
2022/07/10 04:24:51;;;;;;;26.23;2.30;;;;;;;23.58;52.60;99820.47;7314448;19;129598;-40
2022/07/10 04:27:16;;;;;;;16.42;1.75;;;;;;;23.49;52.25;99802.13;7312126;19;131018;-40
2022/07/10 04:29:42;;;;;;;40.88;3.67;;;;;;;23.60;51.87;99809.81;7310838;19;130289;-40
2022/07/10 04:32:08;;;;;;;35.92;3.30;;;;;;;23.59;52.80;99816.84;7314107;19;130863;-37
2022/07/10 04:34:34;;;;;;;25.57;2.50;;;;;;;23.58;52.54;99820.47;7313648;19;130345;-41
2022/07/10 04:36:59;;;;;;;27.87;2.90;;;;;;;23.58;52.42;99807.34;7311825;19;130085;-40
2022/07/10 04:39:25;;;;;;;37.53;3.00;;;;;;;23.60;53.12;99815.06;7312028;19;131030;-40
2022/07/10 04:41:50;;;;;;;23.87;2.33;;;;;;;23.59;52.82;99816.03;7313509;19;129592;-37
2022/07/10 04:44:16;;;;;;;33.60;2.80;;;;;;;23.59;51.78;99811.59;7313059;19;130888;-41
2022/07/10 04:46:41;;;;;;;18.90;1.60;;;;;;;23.59;51.69;99813.41;7312558;19;129543;-41
2022/07/10 04:49:06;;;;;;;21.83;2.30;;;;;;;23.58;52.05;99812.59;7311668;19;131870;-38
2022/07/10 04:51:32;;;;;;;25.08;2.45;;;;;;;23.59;52.14;99808.97;7313291;19;129266;-39
2022/07/10 04:53:57;;;;;;;24.52;2.28;;;;;;;23.57;52.84;99810.91;7311980;19;129030;-40
2022/07/10 04:56:22;;;;;;;41.10;3.72;;;;;;;23.56;52.00;99814.53;7311269;19;129619;-37
2022/07/10 04:58:48;;;;;;;13.27;1.67;;;;;;;23.57;52.21;99810.91;7312115;19;129831;-40
2022/07/10 05:01:13;;;;;;;32.13;2.95;;;;;;;23.55;51.48;99812.88;7312653;19;128923;-39
2022/07/10 05:03:39;;;;;;;20.75;1.80;;;;;;;23.57;51.04;99821.41;7313073;19;129647;-39
2022/07/10 05:06:04;;;;;;;17.98;1.83;;;;;;;23.56;51.69;99819.78;7311934;19;129956;-41
2022/07/10 05:08:30;;;;;;;39.83;3.97;;;;;;;23.55;52.14;99812.88;7308607;19;130455;-40
2022/07/10 05:10:55;;;;;;;32.30;2.83;;;;;;;23.55;51.88;99812.88;7311304;19;129213;-36
2022/07/10 05:13:20;;;;;;;46.13;4.13;;;;;;;23.54;51.94;99810.38;7310086;19;129051;-39
2022/07/10 05:15:49;;;;;;;33.08;2.55;;;;;;;23.55;51.81;99807.63;7310607;19;129451;-40
2022/07/10 05:18:15;;;;;;;27.92;2.92;;;;;;;23.53;51.79;99808.75;7308676;19;130355;-37
2022/07/10 05:20:43;;;;;;;21.05;2.25;;;;;;;23.55;52.22;99817.31;7311000;19;130663;-40
2022/07/10 05:23:09;;;;;;;28.95;2.45;;;;;;;23.54;51.73;99816.47;7311643;19;130327;-40
2022/07/10 05:25:37;;;;;;;32.42;3.03;;;;;;;23.54;52.13;99816.47;7309436;19;130545;-40
2022/07/10 05:28:04;;;;;;;24.65;2.53;;;;;;;23.53;51.41;99814.84;7309284;19;130258;-40
2022/07/10 05:30:29;;;;;;;35.63;3.15;;;;;;;23.53;52.67;99814.00;7308888;19;129416;-41
2022/07/10 05:32:54;;;;;;;24.48;2.20;;;;;;;23.53;51.00;99817.47;7312029;19;129453;-40
2022/07/10 05:35:20;;;;;;;42.85;3.53;;;;;;;23.54;52.42;99811.22;7310911;19;129471;-40
2022/07/10 05:37:45;;;;;;;5.78;1.05;;;;;;;23.53;52.15;99825.34;7308663;19;130178;-39
2022/07/10 05:40:11;;;;;;;34.47;3.28;;;;;;;23.54;51.99;99820.88;7311172;19;129827;-37
2022/07/10 05:42:37;;;;;;;40.60;3.77;;;;;;;23.52;51.67;99823.66;7311915;19;129327;-38
2022/07/10 05:45:04;;;;;;;31.83;2.97;;;;;;;23.52;51.93;99813.16;7310952;19;130826;-38
2022/07/10 05:47:29;;;;;;;31.20;2.78;;;;;;;23.45;51.39;99821.78;7309799;19;130462;-39
2022/07/10 05:49:55;;;;;;;25.48;2.55;;;;;;;23.52;53.18;99823.66;7309690;19;129502;-40
2022/07/10 05:52:20;;;;;;;30.25;2.83;;;;;;;23.51;51.91;99827.25;7313354;19;129537;-38
2022/07/10 05:54:46;;;;;;;8.85;1.08;;;;;;;23.51;52.18;99822.03;7310484;19;129015;-40
2022/07/10 05:57:11;;;;;;;27.00;2.60;;;;;;;23.51;51.21;99816.78;7310560;19;129445;-39
2022/07/10 05:59:36;;;;;;;50.58;4.32;;;;;;;23.51;51.53;99821.19;7310948;19;128969;-41
2022/07/10 06:02:02;;;;;;;26.53;2.37;;;;;;;23.50;51.65;99823.00;7311474;19;129368;-38
2022/07/10 06:04:27;;;;;;;49.10;4.35;;;;;;;23.50;52.16;99820.38;7308164;19;130814;-40
2022/07/10 06:06:53;;;;;;;25.87;2.27;;;;;;;23.50;51.91;99828.25;7308568;19;130914;-38
2022/07/10 06:09:18;;;;;;;18.87;1.90;;;;;;;23.50;50.92;99820.38;7309322;19;129090;-39
2022/07/10 06:11:45;;;;;;;31.38;3.17;;;;;;;23.51;51.84;99822.03;7308083;19;130307;-37
2022/07/10 06:14:14;;;;;;;20.85;1.92;;;;;;;23.48;51.97;99818.84;7311524;19;130436;-37
2022/07/10 06:16:39;;;;;;;27.98;2.63;;;;;;;23.46;52.30;99824.25;7308232;19;131131;-38
2022/07/10 06:19:05;;;;;;;22.10;2.22;;;;;;;23.48;52.45;99826.72;7309859;19;129076;-37
2022/07/10 06:21:31;;;;;;;33.20;2.88;;;;;;;23.39;51.99;99812.69;7310318;19;129461;-37
2022/07/10 06:23:56;;;;;;;33.33;3.03;;;;;;;23.47;52.06;99828.53;7314272;19;129589;-38
2022/07/10 06:26:21;;;;;;;24.17;2.25;;;;;;;23.49;50.71;99823.97;7316483;19;130338;-38
2022/07/10 06:28:47;;;;;;;23.10;2.00;;;;;;;23.48;51.38;99830.19;7315438;19;129105;-37
2022/07/10 06:31:13;;;;;;;25.77;2.05;;;;;;;23.47;52.40;99825.91;7317214;19;129952;-37
2022/07/10 06:33:38;;;;;;;22.97;1.87;;;;;;;23.48;51.52;99818.84;7315899;19;129230;-38
2022/07/10 06:36:05;;;;;;;20.95;1.92;;;;;;;23.40;52.20;99809.09;7316077;19;130263;-38
2022/07/10 06:38:30;;;;;;;27.23;2.58;;;;;;;23.48;52.25;99817.06;7313229;19;128984;-38
2022/07/10 06:40:55;;;;;;;26.87;2.63;;;;;;;23.49;51.61;99820.50;7316146;19;131008;-37
2022/07/10 06:43:21;;;;;;;33.25;2.60;;;;;;;23.41;51.00;99813.38;7316489;19;130117;-38
2022/07/10 06:45:47;;;;;;;31.45;2.75;;;;;;;23.50;51.54;99817.75;7315879;19;131154;-39
2022/07/10 06:48:13;;;;;;;21.60;1.83;;;;;;;23.40;51.59;99816.97;7314870;19;129345;-37
2022/07/10 06:50:39;;;;;;;31.73;2.50;;;;;;;23.49;52.60;99821.34;7313363;19;129240;-37
2022/07/10 07:11:01;;;;;;;77.60;6.80;;;;;;;23.56;51.53;99830.28;5475691;19;3118537;-37
2022/07/10 07:13:26;;;;;;;18.27;1.77;;;;;;;23.60;52.55;99831.63;7344160;19;129363;-39
2022/07/10 07:16:04;;;;;;;36.30;2.92;;;;;;;23.61;51.92;99838.53;7342969;19;129189;-38
2022/07/10 07:18:35;;;;;;;32.17;3.05;;;;;;;23.61;50.43;99830.66;7345836;19;129142;-39
2022/07/10 07:23:44;;;;;;;27.38;2.28;;;;;;;23.58;51.61;99838.00;7345963;19;129331;-36
2022/07/10 07:26:09;;;;;;;31.05;2.53;;;;;;;23.57;51.22;99834.53;7344144;19;128974;-38
2022/07/10 07:28:35;;;;;;;26.70;2.15;;;;;;;23.56;50.66;99832.06;7346367;19;129226;-38
2022/07/10 07:31:00;;;;;;;35.03;2.77;;;;;;;23.52;51.93;99828.91;7346370;19;129883;-37
2022/07/10 07:33:26;;;;;;;19.60;1.60;;;;;;;23.52;51.92;99844.66;7345548;19;129656;-37
2022/07/10 07:35:51;;;;;;;30.13;2.60;;;;;;;23.53;51.85;99833.22;7344596;19;128867;-38
2022/07/10 07:38:17;;;;;;;29.80;2.37;;;;;;;23.56;51.49;99837.31;7345711;19;129191;-38
2022/07/10 07:40:42;;;;;;;5.50;0.87;;;;;;;23.52;51.47;99834.16;7347136;19;130478;-36
2022/07/10 07:43:08;;;;;;;25.10;2.30;;;;;;;23.54;51.18;99832.22;7344980;19;129957;-38
2022/07/10 07:45:33;;;;;;;20.25;1.67;;;;;;;23.55;51.63;99833.06;7344985;19;128906;-38
2022/07/10 07:47:59;;;;;;;33.03;2.85;;;;;;;23.62;52.82;99832.31;7344492;19;128946;-37
2022/07/10 07:50:28;;;;;;;48.77;3.90;;;;;;;23.59;51.09;99824.72;7344428;19;129432;-38
2022/07/10 07:52:54;;;;;;;29.38;2.33;;;;;;;23.52;50.63;99823.66;7345183;19;130358;-39
2022/07/10 07:55:21;;;;;;;31.30;2.63;;;;;;;23.49;51.41;99839.69;7341884;19;129696;-37
2022/07/10 07:57:46;;;;;;;30.92;2.70;;;;;;;23.47;50.99;99825.09;7343770;19;129476;-37
2022/07/10 08:00:14;;;;;;;104.22;8.35;;;;;;;23.46;51.88;99832.13;7335479;19;129432;-39
2022/07/10 08:02:40;;;;;;;32.45;2.80;;;;;;;23.44;50.65;99828.81;7339580;19;131068;-39
2022/07/10 08:05:06;;;;;;;;;;;;;;;23.51;54.14;99831.69;7334523;19;129531;-40
2022/07/10 08:07:39;;;;;;;63.45;4.90;;;;;;;23.46;53.26;99834.75;7315337;19;129763;-38
2022/07/10 08:10:07;;;;;;;46.60;4.05;;;;;;;23.43;50.98;99828.97;7309866;19;132231;-38
2022/07/10 08:12:32;;;;;;;35.50;2.85;;;;;;;23.34;51.17;99814.91;7305092;19;130150;-38
2022/07/10 08:14:58;;;;;;;43.25;3.75;;;;;;;23.43;51.42;99834.22;7306173;19;130540;-39
2022/07/10 08:17:24;;;;;;;57.10;5.00;;;;;;;23.42;50.08;99817.63;7306883;19;130907;-38
2022/07/10 08:19:50;;;;;;;48.33;3.83;;;;;;;23.43;49.88;99824.56;7308226;19;129089;-38
2022/07/10 08:22:15;;;;;;;48.08;3.67;;;;;;;23.42;49.90;99817.63;7306838;19;130667;-37
2022/07/10 08:24:41;;;;;;;46.78;3.90;;;;;;;23.31;50.87;99801.25;7305401;19;129860;-39
2022/07/10 08:27:07;;;;;;;53.93;4.50;;;;;;;23.39;50.44;99812.69;7302892;19;129149;-38
2022/07/10 08:29:33;;;;;;;32.92;3.08;;;;;;;23.41;49.92;99810.75;7309093;19;131263;-38
2022/07/10 08:31:58;;;;;;;42.15;3.58;;;;;;;23.36;50.95;99812.16;7307818;19;129863;-39
2022/07/10 08:34:23;;;;;;;99.32;8.75;;;;;;;23.37;51.95;99817.25;7307223;19;129520;-40
2022/07/10 08:36:49;;;;;;;37.27;3.20;;;;;;;23.37;49.74;99806.75;7307307;19;129971;-40
2022/07/10 08:39:16;;;;;;;23.80;2.35;;;;;;;23.31;49.97;99801.25;7313826;19;130752;-37
2022/07/10 08:41:42;;;;;;;;;;;;;;;23.42;52.94;99817.63;7313157;19;130441;-38
2022/07/10 08:44:08;;;;;;;26.58;2.33;;;;;;;23.35;51.10;99819.22;7315213;19;130019;-39
2022/07/10 08:46:35;;;;;;;38.70;3.33;;;;;;;23.22;49.94;99797.69;7309544;19;129135;-38
2022/07/10 08:49:05;;;;;;;34.47;2.60;;;;;;;23.33;50.08;99828.19;7315862;19;130471;-38
2022/07/10 08:51:37;;;;;;;26.30;2.22;;;;;;;23.31;52.15;99823.09;7314654;19;129540;-39
2022/07/10 08:54:06;;;;;;;31.05;2.75;;;;;;;23.30;50.13;99833.72;7311433;19;129401;-37
2022/07/10 08:56:32;;;;;;;25.85;2.30;;;;;;;23.28;50.72;99831.25;7310245;19;129805;-40
2022/07/10 08:59:00;;;;;;;29.45;2.63;;;;;;;23.29;50.47;99832.88;7313961;19;129831;-39
2022/07/10 09:01:25;;;;;;;46.95;3.75;;;;;;;23.29;51.53;99827.63;7311851;19;130087;-38
2022/07/10 09:03:51;;;;;;;45.60;4.05;;;;;;;23.20;51.66;99815.38;7310810;19;129199;-39
2022/07/10 09:06:16;;;;;;;31.25;2.80;;;;;;;23.26;51.50;99827.91;7310569;19;129039;-38
2022/07/10 09:09:06;;;;;;;27.30;2.17;;;;;;;23.28;53.97;99826.00;7311584;19;130323;-38
2022/07/10 09:11:33;;;;;;;35.33;3.13;;;;;;;23.27;51.72;99818.28;7313152;19;130787;-38
2022/07/10 09:14:07;;;;;;;39.58;3.58;;;;;;;23.27;53.28;99821.72;7308961;19;131363;-40
2022/07/10 09:36:04;;;;;;;30.27;2.45;;;;;;;23.29;52.01;99817.16;7342155;19;131787;-37
2022/07/10 09:37:40;;;;;;;40.78;3.10;;;;;;;23.30;51.62;99818.81;7346491;19;129066;-36
2022/07/10 09:40:07;;;;;;;20.73;1.95;;;;;;;23.35;51.56;99821.00;7342440;19;130360;-38
2022/07/10 09:42:33;;;;;;;37.30;3.55;;;;;;;23.36;51.16;99820.00;7347546;19;130923;-38
2022/07/10 09:45:15;;;;;;;20.52;1.77;;;;;;;23.36;53.65;99828.72;7344571;19;129331;-36
2022/07/10 09:48:03;;;;;;;11.35;1.67;;;;;;;23.34;51.44;99829.84;7348329;19;129146;-40
2022/07/10 09:50:36;;;;;;;21.67;1.92;;;;;;;23.31;51.78;99820.47;7345403;19;130347;-37
2022/07/10 09:53:04;;;;;;;15.27;1.40;;;;;;;23.31;51.67;99824.88;7347049;19;130990;-37
2022/07/10 09:55:32;;;;;;;31.73;3.13;;;;;;;23.31;50.68;99820.47;7344843;19;129892;-37
2022/07/10 09:58:00;;;;;;;39.38;3.83;;;;;;;23.31;50.58;99820.47;7347037;19;129095;-38
2022/07/10 10:00:30;;;;;;;22.77;1.95;;;;;;;23.32;53.16;99816.03;7345585;19;130198;-37
2022/07/10 10:03:07;;;;;;;18.33;1.73;;;;;;;23.23;53.20;99794.94;7347606;19;130293;-37
2022/07/10 10:05:58;;;;;;;31.23;2.73;;;;;;;23.24;53.59;99800.97;7347285;19;129946;-37
2022/07/10 10:08:35;;;;;;;16.90;1.70;;;;;;;23.32;53.30;99806.34;7346628;19;129756;-37
2022/07/10 10:11:01;;;;;;;31.55;2.60;;;;;;;23.31;51.20;99809.13;7347053;19;130247;-37
2022/07/10 10:13:28;;;;;;;24.47;2.50;;;;;;;23.24;51.14;99793.13;7346708;19;130452;-37
2022/07/10 10:15:55;;;;;;;28.35;2.70;;;;;;;23.33;51.01;99805.41;7347269;19;129861;-37
2022/07/10 10:18:24;;;;;;;;;;;;;;;23.38;54.00;99811.03;7348185;19;129880;-38
2022/07/10 10:20:52;;;;;;;19.95;1.85;;;;;;;23.33;50.61;99813.28;7344394;19;130063;-38
2022/07/10 10:23:22;;;;;;;23.80;2.25;;;;;;;23.31;51.92;99807.34;7347444;19;130787;-38
2022/07/10 10:25:49;;;;;;;18.65;1.77;;;;;;;23.32;50.58;99814.22;7347271;19;128951;-37
2022/07/10 10:28:15;;;;;;;;;;;;;;;23.32;53.19;99811.59;7346748;19;129645;-39
2022/07/10 10:30:43;;;;;;;21.30;2.00;;;;;;;23.32;51.78;99805.56;7344855;19;130127;-37
2022/07/10 10:33:30;;;;;;;23.58;2.30;;;;;;;23.33;53.21;99821.16;7342131;19;130930;-37
2022/07/10 10:35:55;;;;;;;20.95;2.13;;;;;;;23.32;50.57;99837.84;7345239;19;130051;-40
2022/07/10 10:38:22;;;;;;;26.15;2.60;;;;;;;23.34;50.94;99829.84;7344553;19;128968;-40
2022/07/10 10:40:47;;;;;;;23.52;2.25;;;;;;;23.33;50.25;99826.41;7342441;19;130217;-38
2022/07/10 10:43:22;;;;;;;34.72;3.45;;;;;;;23.31;52.69;99823.09;7343690;19;131116;-39
2022/07/10 10:45:48;;;;;;;25.58;2.63;;;;;;;23.32;49.67;99837.84;7320537;19;129200;-38
2022/07/10 10:48:15;;;;;;;28.67;2.67;;;;;;;23.34;50.41;99829.84;7315229;19;129103;-37
2022/07/10 10:50:49;;;;;;;27.60;2.72;;;;;;;23.31;52.76;99820.47;7310185;19;130171;-37
2022/07/10 10:53:17;;;;;;;31.35;2.83;;;;;;;23.26;51.48;99812.16;7314237;19;131261;-38
2022/07/10 10:56:02;;;;;;;20.08;2.30;;;;;;;23.31;52.66;99830.94;7314965;19;129168;-36
2022/07/10 10:58:38;;;;;;;31.85;3.03;;;;;;;23.32;50.34;99824.72;7314672;19;129724;-38
2022/07/10 11:01:04;;;;;;;11.43;1.38;;;;;;;23.32;50.37;99837.03;7316580;19;129859;-37
2022/07/10 11:03:30;;;;;;;26.58;2.65;;;;;;;23.33;50.59;99828.19;7314206;19;129197;-39
2022/07/10 11:05:55;;;;;;;33.63;3.13;;;;;;;23.34;50.29;99835.09;7315166;19;129262;-38
2022/07/10 11:08:37;;;;;;;30.98;2.97;;;;;;;23.24;52.69;99821.97;7314474;19;129073;-37
2022/07/10 11:11:40;;;;;;;26.00;2.75;;;;;;;23.32;52.77;99832.59;7314574;19;130223;-38
2022/07/10 11:14:07;;;;;;;33.83;3.08;;;;;;;23.34;49.65;99845.59;7312691;19;131141;-38
2022/07/10 11:16:33;;;;;;;28.30;2.60;;;;;;;23.35;51.41;99842.81;7316324;19;129354;-37
2022/07/10 11:19:00;;;;;;;22.38;2.15;;;;;;;23.34;51.59;99840.34;7313795;19;130444;-40
2022/07/10 11:21:25;;;;;;;35.20;3.40;;;;;;;23.35;50.28;99837.56;7314459;19;129684;-36
2022/07/10 11:24:12;;;;;;;26.85;2.63;;;;;;;23.34;53.55;99835.91;7315182;19;130155;-40
2022/07/10 11:27:05;;;;;;;19.27;2.00;;;;;;;23.30;53.02;99828.47;7316012;19;129125;-39
2022/07/10 11:29:36;;;;;;;30.73;2.85;;;;;;;23.35;51.67;99842.81;7312934;19;129781;-38
2022/07/10 11:32:02;;;;;;;23.38;2.35;;;;;;;23.33;50.05;99839.50;7314335;19;131278;-38
2022/07/10 11:34:37;;;;;;;29.85;2.83;;;;;;;23.24;52.96;99838.53;7311116;19;130396;-39
2022/07/10 11:37:13;;;;;;;24.48;2.47;;;;;;;23.35;50.14;99832.34;7314512;19;129434;-38
2022/07/10 11:39:38;;;;;;;33.63;3.25;;;;;;;23.34;50.18;99827.22;7312138;19;128931;-38
2022/07/10 11:42:04;;;;;;;21.67;1.92;;;;;;;23.34;50.52;99833.28;7314346;19;130690;-37
2022/07/10 11:44:30;;;;;;;28.58;2.65;;;;;;;23.33;50.51;99823.78;7312680;19;130427;-37
2022/07/10 11:46:57;;;;;;;8.70;1.20;;;;;;;23.35;50.00;99821.84;7314908;19;129224;-38
2022/07/10 11:49:22;;;;;;;25.70;2.63;;;;;;;23.35;50.18;99813.97;7311219;19;130190;-36
2022/07/10 11:51:48;;;;;;;33.47;3.40;;;;;;;23.35;49.90;99827.09;7314417;19;130910;-38
2022/07/10 11:54:17;;;;;;;24.52;2.47;;;;;;;23.37;50.52;99821.69;7311052;19;129634;-38
2022/07/10 11:56:47;;;;;;;39.03;3.63;;;;;;;23.35;52.75;99821.84;7311659;19;129057;-38
2022/07/10 11:59:14;;;;;;;30.25;2.72;;;;;;;23.37;50.56;99819.88;7311627;19;129218;-38
2022/07/10 12:01:50;;;;;;;28.05;2.67;;;;;;;23.29;52.73;99821.59;7312652;19;129251;-38